Time;durP1;ratioP1;P1;durP2;ratioP2;P2;SDS_P1;SDS_P2;PMS_P1;PMS_P2;Temp;Humidity;BMP_temperature;BMP_pressure;BME280_temperature;BME280_humidity;BME280_pressure;Samples;Min_cycle;Max_cycle;Signal;HPM_P1;HPM_P2
2022/09/24 00:01:34;;;;;;;;;;;;;;;;;;5176502;27;2084;-46
2022/09/24 00:04:04;;;;;;;;;;;;;;;;;;5176661;27;2027;-45
2022/09/24 00:06:33;;;;;;;;;;;;;;;;;;5176314;27;1975;-47
2022/09/24 00:09:00;;;;;;;;;;;;;;;;;;5176153;27;2263;-46
2022/09/24 00:11:28;;;;;;;;;;;;;;;;;;5157753;27;2152;-48
2022/09/24 00:13:56;;;;;;;;;;;;;;;;;;5176394;27;2085;-45
2022/09/24 00:16:27;;;;;;;;;;;;;;;;;;5176813;27;1815;-49
2022/09/24 00:18:54;;;;;;;;;;;;;;;;;;5176389;27;1735;-46
2022/09/24 00:21:27;;;;;;;;;;;;;;;;;;5176240;27;1922;-46
2022/09/24 00:24:00;;;;;;;;;;;;;;;;;;5176327;27;1630;-44
2022/09/24 00:29:15;;;;;;;;;;;;;;;;;;5175949;27;1941;-48
2022/09/24 00:31:43;;;;;;;;;;;;;;;;;;5175916;27;2027;-46
2022/09/24 00:34:10;;;;;;;;;;;;;;;;;;5176102;27;1726;-45
2022/09/24 00:36:37;;;;;;;;;;;;;;;;;;5176065;27;1681;-48
2022/09/24 00:39:05;;;;;;;;;;;;;;;;;;5175974;27;1640;-49
2022/09/24 00:41:34;;;;;;;;;;;;;;;;;;5175738;27;1962;-46
2022/09/24 00:44:21;;;;;;;;;;;;;;;;;;5176077;27;1632;-47
2022/09/24 00:46:48;;;;;;;;;;;;;;;;;;5175604;27;1959;-46
2022/09/24 00:49:17;;;;;;;;;;;;;;;;;;5175812;27;2074;-45
2022/09/24 00:51:47;;;;;;;;;;;;;;;;;;5175852;27;1684;-44
2022/09/24 00:54:18;;;;;;;;;;;;;;;;;;5175744;27;2068;-45
2022/09/24 00:56:47;;;;;;;;;;;;;;;;;;5140926;27;1762;-45
2022/09/24 00:59:16;;;;;;;;;;;;;;;;;;5179876;27;1863;-45
2022/09/24 01:01:44;;;;;;;;;;;;;;;;;;5180191;27;1743;-46
2022/09/24 01:04:12;;;;;;;;;;;;;;;;;;5180013;27;1821;-45
2022/09/24 01:06:40;;;;;;;;;;;;;;;;;;5179769;27;1968;-45
2022/09/24 01:09:07;;;;;;;;;;;;;;;;;;5179904;27;2208;-45
2022/09/24 01:11:43;;;;;;;;;;;;;;;;;;5179676;27;1929;-42
2022/09/24 01:14:31;;;;;;;;;;;;;;;;;;5179879;27;1730;-48
2022/09/24 01:17:05;;;;;;;;;;;;;;;;;;5179869;27;2034;-47
2022/09/24 01:19:51;;;;;;;;;;;;;;;;;;5179633;27;1818;-46
2022/09/24 01:22:36;;;;;;;;;;;;;;;;;;5179777;27;1969;-48
2022/09/24 01:25:03;;;;;;;;;;;;;;;;;;5179593;27;1997;-45
2022/09/24 01:28:06;;;;;;;;;;;;;;;;;;5179655;27;1789;-48
2022/09/24 01:30:37;;;;;;;;;;;;;;;;;;5074389;28;2188;-47
2022/09/24 01:33:12;;;;;;;;;;;;;;;;;;5164460;27;2338;-47
2022/09/24 01:35:39;;;;;;;;;;;;;;;;;;5179501;27;1860;-46
2022/09/24 01:38:13;;;;;;;;;;;;;;;;;;5179281;27;1865;-47
2022/09/24 01:40:42;;;;;;;;;;;;;;;;;;5178942;27;2123;-45
2022/09/24 01:43:10;;;;;;;;;;;;;;;;;;5179463;27;1690;-45
2022/09/24 01:45:38;;;;;;;;;;;;;;;;;;5179068;27;2058;-46
2022/09/24 01:48:06;;;;;;;;;;;;;;;;;;5179234;27;1257;-48
2022/09/24 01:50:45;;;;;;;;;;;;;;;;;;5179072;27;2085;-47
2022/09/24 01:53:18;;;;;;;;;;;;;;;;;;5178985;27;1634;-46
2022/09/24 01:55:48;;;;;;;;;;;;;;;;;;5178999;27;1799;-46
2022/09/24 01:58:22;;;;;;;;;;;;;;;;;;5179075;27;1959;-46
2022/09/24 02:00:53;;;;;;;;;;;;;;;;;;5178720;27;1944;-47
2022/09/24 02:03:23;;;;;;;;;;;;;;;;;;5178954;27;2257;-45
2022/09/24 02:05:57;;;;;;;;;;;;;;;;;;5178789;27;1905;-47
2022/09/24 02:08:27;;;;;;;;;;;;;;;;;;5178195;27;1802;-48
2022/09/24 02:11:06;;;;;;;;;;;;;;;;;;5178903;27;1934;-47
2022/09/24 02:13:38;;;;;;;;;;;;;;;;;;5178811;27;1980;-46
2022/09/24 02:16:08;;;;;;;;;;;;;;;;;;5178487;27;1798;-50
2022/09/24 02:18:37;;;;;;;;;;;;;;;;;;5178572;27;1848;-43
2022/09/24 02:21:09;;;;;;;;;;;;;;;;;;5178552;27;2265;-47
2022/09/24 02:23:39;;;;;;;;;;;;;;;;;;5178535;27;1532;-47
2022/09/24 02:26:10;;;;;;;;;;;;;;;;;;5178326;27;1972;-47
2022/09/24 02:28:37;;;;;;;;;;;;;;;;;;5178027;27;2010;-45
2022/09/24 02:31:06;;;;;;;;;;;;;;;;;;5178338;27;1721;-48
2022/09/24 02:36:23;;;;;;;;;;;;;;;;;;5178195;27;1690;-48
2022/09/24 02:38:51;;;;;;;;;;;;;;;;;;5177902;27;1748;-47
2022/09/24 02:41:19;;;;;;;;;;;;;;;;;;5177764;27;1702;-48
2022/09/24 02:43:46;;;;;;;;;;;;;;;;;;5177852;27;2387;-45
2022/09/24 02:46:13;;;;;;;;;;;;;;;;;;5177984;27;1905;-47
2022/09/24 02:48:40;;;;;;;;;;;;;;;;;;5177723;27;2186;-45
2022/09/24 02:51:08;;;;;;;;;;;;;;;;;;5177947;27;1666;-48
2022/09/24 02:53:35;;;;;;;;;;;;;;;;;;5177676;27;1494;-47
2022/09/24 02:56:02;;;;;;;;;;;;;;;;;;5177654;27;2153;-47
2022/09/24 02:58:29;;;;;;;;;;;;;;;;;;5177547;27;1575;-42
2022/09/24 03:00:57;;;;;;;;;;;;;;;;;;5177420;27;2091;-43
2022/09/24 03:03:24;;;;;;;;;;;;;;;;;;5177864;27;1913;-45
2022/09/24 03:05:53;;;;;;;;;;;;;;;;;;5178162;27;1968;-45
2022/09/24 03:08:21;;;;;;;;;;;;;;;;;;5177646;27;2008;-47
2022/09/24 03:10:49;;;;;;;;;;;;;;;;;;5177444;27;2110;-46
2022/09/24 03:13:17;;;;;;;;;;;;;;;;;;5177439;27;1999;-49
2022/09/24 03:15:44;;;;;;;;;;;;;;;;;;5177484;27;2107;-44
2022/09/24 03:18:12;;;;;;;;;;;;;;;;;;5177362;27;2204;-47
2022/09/24 03:20:40;;;;;;;;;;;;;;;;;;5176047;27;1954;-46
2022/09/24 03:23:09;;;;;;;;;;;;;;;;;;5177481;27;2197;-47
2022/09/24 03:25:36;;;;;;;;;;;;;;;;;;5172151;27;2267;-45
2022/09/24 03:28:04;;;;;;;;;;;;;;;;;;5138227;27;1945;-45
2022/09/24 03:33:16;;;;;;;;;;;;;;;;;;5177007;27;1967;-45
2022/09/24 03:35:43;;;;;;;;;;;;;;;;;;5177141;27;1722;-45
2022/09/24 03:38:10;;;;;;;;;;;;;;;;;;5177447;27;1965;-48
2022/09/24 03:40:38;;;;;;;;;;;;;;;;;;5176481;27;1717;-47
2022/09/24 03:43:05;;;;;;;;;;;;;;;;;;5176969;27;1942;-47
2022/09/24 03:45:32;;;;;;;;;;;;;;;;;;5176847;27;1968;-46
2022/09/24 03:48:00;;;;;;;;;;;;;;;;;;5177048;27;2253;-46
2022/09/24 03:50:27;;;;;;;;;;;;;;;;;;5176671;27;1781;-44
2022/09/24 03:52:54;;;;;;;;;;;;;;;;;;5176989;27;2015;-48
2022/09/24 03:55:21;;;;;;;;;;;;;;;;;;5176639;27;2259;-46
2022/09/24 03:57:48;;;;;;;;;;;;;;;;;;5176809;27;1871;-45
2022/09/24 04:00:16;;;;;;;;;;;;;;;;;;5176341;27;1608;-47
2022/09/24 04:02:43;;;;;;;;;;;;;;;;;;5176438;27;2262;-45
2022/09/24 04:05:11;;;;;;;;;;;;;;;;;;5176588;27;2140;-47
2022/09/24 04:07:38;;;;;;;;;;;;;;;;;;5176505;27;1909;-45
2022/09/24 04:10:07;;;;;;;;;;;;;;;;;;5176256;27;2109;-49
2022/09/24 04:12:34;;;;;;;;;;;;;;;;;;5176144;27;1734;-46
2022/09/24 04:15:02;;;;;;;;;;;;;;;;;;5176381;27;2139;-46
2022/09/24 04:17:32;;;;;;;;;;;;;;;;;;5176363;27;1875;-48
2022/09/24 04:20:00;;;;;;;;;;;;;;;;;;5176246;27;1624;-44
2022/09/24 04:22:27;;;;;;;;;;;;;;;;;;5176204;27;1687;-46
2022/09/24 04:24:56;;;;;;;;;;;;;;;;;;5157552;27;1684;-43
2022/09/24 04:27:23;;;;;;;;;;;;;;;;;;5176070;27;2187;-49
2022/09/24 04:29:53;;;;;;;;;;;;;;;;;;5175811;27;1719;-44
2022/09/24 04:32:20;;;;;;;;;;;;;;;;;;5157059;27;1738;-45
2022/09/24 04:34:48;;;;;;;;;;;;;;;;;;5175806;27;1782;-46
2022/09/24 04:37:15;;;;;;;;;;;;;;;;;;5176147;27;2129;-48
2022/09/24 04:39:42;;;;;;;;;;;;;;;;;;5175559;27;2035;-42
2022/09/24 04:42:09;;;;;;;;;;;;;;;;;;5175946;27;1877;-45
2022/09/24 04:44:36;;;;;;;;;;;;;;;;;;5175928;27;2090;-45
2022/09/24 04:47:06;;;;;;;;;;;;;;;;;;5175861;27;2058;-46
2022/09/24 04:49:33;;;;;;;;;;;;;;;;;;5176066;27;1633;-46
2022/09/24 04:52:03;;;;;;;;;;;;;;;;;;5175586;27;1995;-46
2022/09/24 04:54:30;;;;;;;;;;;;;;;;;;5175769;27;2048;-45
2022/09/24 04:56:57;;;;;;;;;;;;;;;;;;5175838;27;2268;-49
2022/09/24 04:59:25;;;;;;;;;;;;;;;;;;5176033;27;2148;-47
2022/09/24 05:01:53;;;;;;;;;;;;;;;;;;5175537;27;1840;-48
2022/09/24 05:04:20;;;;;;;;;;;;;;;;;;5175725;27;1531;-47
2022/09/24 05:06:47;;;;;;;;;;;;;;;;;;5175563;27;1970;-46
2022/09/24 05:09:14;;;;;;;;;;;;;;;;;;5175670;27;1706;-45
2022/09/24 05:11:42;;;;;;;;;;;;;;;;;;5175414;27;1947;-45
2022/09/24 05:14:09;;;;;;;;;;;;;;;;;;5175761;27;1952;-46
2022/09/24 05:16:36;;;;;;;;;;;;;;;;;;5175610;27;1833;-42
2022/09/24 05:19:03;;;;;;;;;;;;;;;;;;5175609;27;1907;-45
2022/09/24 05:21:31;;;;;;;;;;;;;;;;;;5175448;27;1928;-46
2022/09/24 05:23:58;;;;;;;;;;;;;;;;;;5175401;27;1429;-48
2022/09/24 05:29:11;;;;;;;;;;;;;;;;;;5175596;27;2081;-42
2022/09/24 05:31:38;;;;;;;;;;;;;;;;;;5175441;27;1691;-45
2022/09/24 05:34:05;;;;;;;;;;;;;;;;;;5175213;27;1881;-48
2022/09/24 05:36:32;;;;;;;;;;;;;;;;;;5175298;27;2281;-49
2022/09/24 05:39:00;;;;;;;;;;;;;;;;;;5175595;27;2142;-46
2022/09/24 05:41:27;;;;;;;;;;;;;;;;;;5175416;27;2092;-46
2022/09/24 05:43:57;;;;;;;;;;;;;;;;;;5176466;27;1718;-45
2022/09/24 05:46:24;;;;;;;;;;;;;;;;;;5179240;27;1967;-44
2022/09/24 05:48:51;;;;;;;;;;;;;;;;;;5179151;27;2209;-48
2022/09/24 05:51:19;;;;;;;;;;;;;;;;;;5179101;27;1744;-47
2022/09/24 05:53:46;;;;;;;;;;;;;;;;;;5179058;27;2140;-44
2022/09/24 05:56:13;;;;;;;;;;;;;;;;;;5179082;27;1800;-41
2022/09/24 05:58:40;;;;;;;;;;;;;;;;;;5178864;27;1943;-45
2022/09/24 06:01:07;;;;;;;;;;;;;;;;;;5178859;27;1955;-42
2022/09/24 06:03:34;;;;;;;;;;;;;;;;;;5178842;27;1832;-45
2022/09/24 06:06:02;;;;;;;;;;;;;;;;;;5178973;27;1939;-39
2022/09/24 06:08:30;;;;;;;;;;;;;;;;;;5178855;27;2020;-43
2022/09/24 06:11:01;;;;;;;;;;;;;;;;;;5178386;27;1398;-44
2022/09/24 06:13:30;;;;;;;;;;;;;;;;;;5178304;27;1819;-48
2022/09/24 06:16:07;;;;;;;;;;;;;;;;;;5179024;27;1796;-45
2022/09/24 06:18:36;;;;;;;;;;;;;;;;;;5178405;27;1980;-47
2022/09/24 06:21:04;;;;;;;;;;;;;;;;;;5178351;27;2039;-41
2022/09/24 06:23:32;;;;;;;;;;;;;;;;;;5178217;27;2084;-41
2022/09/24 06:25:59;;;;;;;;;;;;;;;;;;5177942;27;1971;-41
2022/09/24 06:28:26;;;;;;;;;;;;;;;;;;5178575;27;2137;-42
2022/09/24 06:30:54;;;;;;;;;;;;;;;;;;5178303;27;1503;-57
2022/09/24 06:33:22;;;;;;;;;;;;;;;;;;5178273;27;2284;-45
2022/09/24 06:35:49;;;;;;;;;;;;;;;;;;5178371;27;2133;-42
2022/09/24 06:38:17;;;;;;;;;;;;;;;;;;5178267;27;2071;-44
2022/09/24 06:40:47;;;;;;;;;;;;;;;;;;5177882;27;1705;-46
2022/09/24 06:43:14;;;;;;;;;;;;;;;;;;5177919;27;2092;-48
2022/09/24 06:45:41;;;;;;;;;;;;;;;;;;5178121;27;2177;-41
2022/09/24 06:48:11;;;;;;;;;;;;;;;;;;5178162;27;2102;-46
2022/09/24 06:50:39;;;;;;;;;;;;;;;;;;5159697;27;1747;-43
2022/09/24 06:53:07;;;;;;;;;;;;;;;;;;5158860;27;2266;-41
2022/09/24 06:55:35;;;;;;;;;;;;;;;;;;5177766;27;2103;-44
2022/09/24 06:58:09;;;;;;;;;;;;;;;;;;5177835;27;1493;-45
2022/09/24 07:00:37;;;;;;;;;;;;;;;;;;5177898;27;1835;-44
2022/09/24 07:03:05;;;;;;;;;;;;;;;;;;5177696;27;2191;-47
2022/09/24 07:05:33;;;;;;;;;;;;;;;;;;5177692;27;2019;-47
2022/09/24 07:08:04;;;;;;;;;;;;;;;;;;5177641;27;2207;-46
2022/09/24 07:10:31;;;;;;;;;;;;;;;;;;5177701;27;1859;-43
2022/09/24 07:12:58;;;;;;;;;;;;;;;;;;5177371;27;1886;-43
2022/09/24 07:15:27;;;;;;;;;;;;;;;;;;5177833;27;1813;-44
2022/09/24 07:17:56;;;;;;;;;;;;;;;;;;5177710;27;1792;-46
2022/09/24 07:20:23;;;;;;;;;;;;;;;;;;5177388;27;2167;-45
2022/09/24 07:22:51;;;;;;;;;;;;;;;;;;5159047;27;2021;-45
2022/09/24 07:25:18;;;;;;;;;;;;;;;;;;5177259;27;1826;-46
2022/09/24 07:27:45;;;;;;;;;;;;;;;;;;5177321;27;2073;-44
2022/09/24 07:30:12;;;;;;;;;;;;;;;;;;5170989;27;1678;-43
2022/09/24 07:32:40;;;;;;;;;;;;;;;;;;5176968;27;1990;-43
2022/09/24 07:35:07;;;;;;;;;;;;;;;;;;5177236;27;2082;-42
2022/09/24 07:37:34;;;;;;;;;;;;;;;;;;5177203;27;2479;-47
2022/09/24 07:40:01;;;;;;;;;;;;;;;;;;5176970;27;1691;-40
2022/09/24 07:42:28;;;;;;;;;;;;;;;;;;5177108;27;1701;-41
2022/09/24 07:44:56;;;;;;;;;;;;;;;;;;5176837;27;2010;-45
2022/09/24 07:47:23;;;;;;;;;;;;;;;;;;5176709;27;1898;-47
2022/09/24 07:49:50;;;;;;;;;;;;;;;;;;5176800;27;2282;-44
2022/09/24 07:52:18;;;;;;;;;;;;;;;;;;5176674;27;1973;-45
2022/09/24 07:54:45;;;;;;;;;;;;;;;;;;5176418;27;1771;-45
2022/09/24 07:57:12;;;;;;;;;;;;;;;;;;5176741;27;2079;-45
2022/09/24 07:59:40;;;;;;;;;;;;;;;;;;5176651;27;1666;-44
2022/09/24 08:02:15;;;;;;;;;;;;;;;;;;5176442;27;2069;-48
2022/09/24 08:04:43;;;;;;;;;;;;;;;;;;5176286;27;2433;-43
2022/09/24 08:07:14;;;;;;;;;;;;;;;;;;5175983;27;2295;-45
2022/09/24 08:09:41;;;;;;;;;;;;;;;;;;5176577;27;1607;-41
2022/09/24 08:12:08;;;;;;;;;;;;;;;;;;5176398;27;1808;-42
2022/09/24 08:14:36;;;;;;;;;;;;;;;;;;5176038;27;1559;-41
2022/09/24 08:17:03;;;;;;;;;;;;;;;;;;5176562;27;2116;-43
2022/09/24 08:19:32;;;;;;;;;;;;;;;;;;5176157;27;2060;-40
2022/09/24 08:21:59;;;;;;;;;;;;;;;;;;5176637;27;1870;-46
2022/09/24 08:24:26;;;;;;;;;;;;;;;;;;5176355;27;1673;-50
2022/09/24 08:26:53;;;;;;;;;;;;;;;;;;5176034;27;1974;-45
2022/09/24 08:29:21;;;;;;;;;;;;;;;;;;5176247;27;1584;-48
2022/09/24 08:31:50;;;;;;;;;;;;;;;;;;5175863;27;2140;-47
2022/09/24 08:34:17;;;;;;;;;;;;;;;;;;5176031;27;1965;-50
2022/09/24 08:36:44;;;;;;;;;;;;;;;;;;5175968;27;1856;-44
2022/09/24 08:39:14;;;;;;;;;;;;;;;;;;5176059;27;1818;-46
2022/09/24 08:42:04;;;;;;;;;;;;;;;;;;5175839;27;1650;-44
2022/09/24 08:47:29;;;;;;;;;;;;;;;;;;5176108;27;2100;-46
2022/09/24 08:50:08;;;;;;;;;;;;;;;;;;5176147;27;1887;-41
2022/09/24 08:52:36;;;;;;;;;;;;;;;;;;5175916;27;2265;-46
2022/09/24 08:55:24;;;;;;;;;;;;;;;;;;5175770;27;2001;-46
2022/09/24 08:57:59;;;;;;;;;;;;;;;;;;5175726;27;2046;-39
2022/09/24 09:00:29;;;;;;;;;;;;;;;;;;5175888;27;1998;-46
2022/09/24 09:03:07;;;;;;;;;;;;;;;;;;5176085;27;1785;-40
2022/09/24 09:05:44;;;;;;;;;;;;;;;;;;5175682;27;2394;-42
2022/09/24 09:08:28;;;;;;;;;;;;;;;;;;5175834;27;1958;-46
2022/09/24 09:11:17;;;;;;;;;;;;;;;;;;5144075;27;2503;-44
2022/09/24 09:13:49;;;;;;;;;;;;;;;;;;5154468;27;2111;-43
2022/09/24 09:16:26;;;;;;;;;;;;;;;;;;5154830;27;1888;-45
2022/09/24 09:18:56;;;;;;;;;;;;;;;;;;5175427;27;1763;-42
2022/09/24 09:21:30;;;;;;;;;;;;;;;;;;5179709;27;1993;-43
2022/09/24 09:23:59;;;;;;;;;;;;;;;;;;5179616;27;1623;-45
2022/09/24 09:26:26;;;;;;;;;;;;;;;;;;5179932;27;1795;-46
2022/09/24 09:28:57;;;;;;;;;;;;;;;;;;5179738;27;1976;-43
2022/09/24 09:31:31;;;;;;;;;;;;;;;;;;5178083;27;1516;-43
2022/09/24 09:34:19;;;;;;;;;;;;;;;;;;5158738;27;1741;-43
2022/09/24 09:36:46;;;;;;;;;;;;;;;;;;5139791;27;2195;-43
2022/09/24 09:39:31;;;;;;;;;;;;;;;;;;5158615;27;1918;-42
2022/09/24 09:42:17;;;;;;;;;;;;;;;;;;5125682;27;1941;-45
2022/09/24 09:44:45;;;;;;;;;;;;;;;;;;5137772;27;1958;-47
2022/09/24 09:47:18;;;;;;;;;;;;;;;;;;5137496;27;1981;-45
2022/09/24 09:49:47;;;;;;;;;;;;;;;;;;5137294;27;1727;-49
2022/09/24 09:52:20;;;;;;;;;;;;;;;;;;5137434;27;1831;-41
2022/09/24 09:54:47;;;;;;;;;;;;;;;;;;5137523;27;1788;-46
2022/09/24 09:57:24;;;;;;;;;;;;;;;;;;5137368;27;1781;-43
2022/09/24 09:59:52;;;;;;;;;;;;;;;;;;5137573;27;1406;-45
2022/09/24 10:02:27;;;;;;;;;;;;;;;;;;5137187;27;2124;-40
2022/09/24 10:04:55;;;;;;;;;;;;;;;;;;5136986;27;1888;-41
2022/09/24 10:07:23;;;;;;;;;;;;;;;;;;5137077;27;2119;-43
2022/09/24 10:10:01;;;;;;;;;;;;;;;;;;5136939;27;1770;-50
2022/09/24 10:12:29;;;;;;;;;;;;;;;;;;5137082;27;1985;-45
2022/09/24 10:15:19;;;;;;;;;;;;;;;;;;5137412;27;1752;-42
2022/09/24 10:17:48;;;;;;;;;;;;;;;;;;5125145;27;2062;-41
2022/09/24 10:20:19;;;;;;;;;;;;;;;;;;5136985;27;1358;-43
2022/09/24 10:22:51;;;;;;;;;;;;;;;;;;5136642;27;2095;-43
2022/09/24 10:25:25;;;;;;;;;;;;;;;;;;5135664;27;2187;-46
2022/09/24 10:30:32;;;;;;;;;;;;;;;;;;5136485;27;1936;-41
2022/09/24 10:30:49;;;;;;;;;;;;;;;;;;5135903;27;1781;-45
2022/09/24 10:33:18;;;;;;;;;;;;;;;;;;5136793;27;2110;-40
2022/09/24 10:35:45;;;;;;;;;;;;;;;;;;5136709;27;1658;-41
2022/09/24 10:38:20;;;;;;;;;;;;;;;;;;5136377;27;2031;-40
2022/09/24 10:40:48;;;;;;;;;;;;;;;;;;5161952;27;1557;-41
2022/09/24 10:43:17;;;;;;;;;;;;;;;;;;5178136;27;1841;-40
2022/09/24 10:45:45;;;;;;;;;;;;;;;;;;5178181;27;1765;-51
2022/09/24 10:48:22;;;;;;;;;;;;;;;;;;5178348;27;1975;-41
2022/09/24 10:50:54;;;;;;;;;;;;;;;;;;5177238;27;1913;-44
2022/09/24 10:53:30;;;;;;;;;;;;;;;;;;5177781;27;1913;-47
2022/09/24 10:55:57;;;;;;;;;;;;;;;;;;5177945;27;1957;-40
2022/09/24 10:58:31;;;;;;;;;;;;;;;;;;5177865;27;1915;-40
2022/09/24 11:01:15;;;;;;;;;;;;;;;;;;5177413;27;2148;-43
2022/09/24 11:03:43;;;;;;;;;;;;;;;;;;5177810;27;1766;-39
2022/09/24 11:06:17;;;;;;;;;;;;;;;;;;5177797;27;2176;-40
2022/09/24 11:08:47;;;;;;;;;;;;;;;;;;5177711;27;2258;-40
2022/09/24 11:11:14;;;;;;;;;;;;;;;;;;5177393;27;2155;-43
2022/09/24 11:13:57;;;;;;;;;;;;;;;;;;5176948;27;1933;-39
2022/09/24 11:16:29;;;;;;;;;;;;;;;;;;5177425;27;2100;-51
2022/09/24 11:19:10;;;;;;;;;;;;;;;;;;5158059;27;2332;-47
2022/09/24 11:21:39;;;;;;;;;;;;;;;;;;5156357;27;2174;-43
2022/09/24 11:24:13;;;;;;;;;;;;;;;;;;5155762;27;1765;-45
2022/09/24 11:26:59;;;;;;;;;;;;;;;;;;5156441;27;2359;-41
2022/09/24 11:29:29;;;;;;;;;;;;;;;;;;5156346;27;2122;-40
2022/09/24 11:32:21;;;;;;;;;;;;;;;;;;5176750;27;1934;-42
2022/09/24 11:34:54;;;;;;;;;;;;;;;;;;5176637;27;1801;-42
2022/09/24 11:37:41;;;;;;;;;;;;;;;;;;5176604;27;2190;-40
2022/09/24 11:40:20;;;;;;;;;;;;;;;;;;5176639;27;2190;-46
2022/09/24 11:42:47;;;;;;;;;;;;;;;;;;5175360;27;1941;-43
2022/09/24 11:45:36;;;;;;;;;;;;;;;;;;5176662;27;2004;-48
2022/09/24 11:48:22;;;;;;;;;;;;;;;;;;5176451;27;1980;-45
2022/09/24 11:51:14;;;;;;;;;;;;;;;;;;5158103;27;1729;-47
2022/09/24 11:53:55;;;;;;;;;;;;;;;;;;5176253;27;1949;-51
2022/09/24 11:56:42;;;;;;;;;;;;;;;;;;5176426;27;2074;-51
2022/09/24 11:59:10;;;;;;;;;;;;;;;;;;5176358;27;1636;-47
2022/09/24 12:01:39;;;;;;;;;;;;;;;;;;5175908;27;1883;-48
2022/09/24 12:04:20;;;;;;;;;;;;;;;;;;5176596;27;2174;-40
2022/09/24 12:06:54;;;;;;;;;;;;;;;;;;5176254;27;1783;-44
2022/09/24 12:10:00;;;;;;;;;;;;;;;;;;5176285;27;1984;-46
2022/09/24 12:12:30;;;;;;;;;;;;;;;;;;5070974;28;2070;-44
2022/09/24 12:15:13;;;;;;;;;;;;;;;;;;5071319;28;2002;-43
2022/09/24 12:17:45;;;;;;;;;;;;;;;;;;5123433;27;1326;-42
2022/09/24 12:20:33;;;;;;;;;;;;;;;;;;5155474;27;1837;-45
2022/09/24 12:23:08;;;;;;;;;;;;;;;;;;5155693;27;1871;-50
2022/09/24 12:25:46;;;;;;;;;;;;;;;;;;5155066;27;1939;-49
2022/09/24 12:32:52;;;;;;;;;;;;;;;;;;5155056;27;2296;-40
2022/09/24 12:33:56;;;;;;;;;;;;;;;;;;5172924;27;1740;-41
2022/09/24 12:36:49;;;;;;;;;;;;;;;;;;5175865;27;1944;-40
2022/09/24 12:39:30;;;;;;;;;;;;;;;;;;5175213;27;1636;-42
2022/09/24 12:42:07;;;;;;;;;;;;;;;;;;5176003;27;2088;-41
2022/09/24 12:44:35;;;;;;;;;;;;;;;;;;5175969;27;2099;-45
2022/09/24 12:47:06;;;;;;;;;;;;;;;;;;5175611;27;1798;-44
2022/09/24 12:49:40;;;;;;;;;;;;;;;;;;5175650;27;1908;-43
2022/09/24 12:52:22;;;;;;;;;;;;;;;;;;5172459;27;1616;-45
2022/09/24 12:54:54;;;;;;;;;;;;;;;;;;5175398;27;2122;-40
2022/09/24 12:57:24;;;;;;;;;;;;;;;;;;5156827;27;1699;-47
2022/09/24 12:59:54;;;;;;;;;;;;;;;;;;5175462;27;1577;-46
2022/09/24 13:02:22;;;;;;;;;;;;;;;;;;5175534;27;2404;-41
2022/09/24 13:05:10;;;;;;;;;;;;;;;;;;5175364;27;1999;-46
2022/09/24 13:07:39;;;;;;;;;;;;;;;;;;5124430;27;2003;-42
2022/09/24 13:10:30;;;;;;;;;;;;;;;;;;5175124;27;1806;-38
2022/09/24 13:13:01;;;;;;;;;;;;;;;;;;5161364;27;1941;-39
2022/09/24 13:15:38;;;;;;;;;;;;;;;;;;5175573;27;1818;-41
2022/09/24 13:18:09;;;;;;;;;;;;;;;;;;5175553;27;2055;-45
2022/09/24 13:20:38;;;;;;;;;;;;;;;;;;5175072;27;1506;-39
2022/09/24 13:23:20;;;;;;;;;;;;;;;;;;5175321;27;2019;-41
2022/09/24 13:25:55;;;;;;;;;;;;;;;;;;5175429;27;1574;-41
2022/09/24 13:28:46;;;;;;;;;;;;;;;;;;5175063;27;1966;-45
2022/09/24 13:31:20;;;;;;;;;;;;;;;;;;5162931;27;2271;-43
2022/09/24 13:33:53;;;;;;;;;;;;;;;;;;5175364;27;2103;-41
2022/09/24 13:36:42;;;;;;;;;;;;;;;;;;5175248;27;1990;-41
2022/09/24 13:39:20;;;;;;;;;;;;;;;;;;5154175;27;1526;-41
2022/09/24 13:41:51;;;;;;;;;;;;;;;;;;5159757;27;2192;-41
2022/09/24 13:44:54;;;;;;;;;;;;;;;;;;5175258;27;1917;-41
2022/09/24 13:47:27;;;;;;;;;;;;;;;;;;5118669;27;1427;-42
2022/09/24 13:49:59;;;;;;;;;;;;;;;;;;5174816;27;1906;-42
2022/09/24 13:52:31;;;;;;;;;;;;;;;;;;5175190;27;1725;-53
2022/09/24 13:55:01;;;;;;;;;;;;;;;;;;5175342;27;2109;-42
2022/09/24 13:57:29;;;;;;;;;;;;;;;;;;5156692;27;1693;-41
2022/09/24 14:00:03;;;;;;;;;;;;;;;;;;5174990;27;1836;-40
2022/09/24 14:02:35;;;;;;;;;;;;;;;;;;5174792;27;1810;-41
2022/09/24 14:05:08;;;;;;;;;;;;;;;;;;5176218;27;1654;-46
2022/09/24 14:07:35;;;;;;;;;;;;;;;;;;5178691;27;1781;-41
2022/09/24 14:10:11;;;;;;;;;;;;;;;;;;5178289;27;2087;-45
2022/09/24 14:12:39;;;;;;;;;;;;;;;;;;5177461;27;1976;-40
2022/09/24 14:15:13;;;;;;;;;;;;;;;;;;5177120;27;1599;-41
2022/09/24 14:17:40;;;;;;;;;;;;;;;;;;5178251;27;2147;-41
2022/09/24 14:20:12;;;;;;;;;;;;;;;;;;5178500;27;1717;-40
2022/09/24 14:22:41;;;;;;;;;;;;;;;;;;5178318;27;1973;-39
2022/09/24 14:25:12;;;;;;;;;;;;;;;;;;5178763;27;1677;-40
2022/09/24 14:27:41;;;;;;;;;;;;;;;;;;5178381;27;1247;-41
2022/09/24 14:30:20;;;;;;;;;;;;;;;;;;5159520;27;2285;-41
2022/09/24 14:32:53;;;;;;;;;;;;;;;;;;5178156;27;1634;-48
2022/09/24 14:35:30;;;;;;;;;;;;;;;;;;5177950;27;2045;-41
2022/09/24 14:38:05;;;;;;;;;;;;;;;;;;5173498;27;1372;-48
2022/09/24 14:40:42;;;;;;;;;;;;;;;;;;5156795;27;1892;-40
2022/09/24 14:43:18;;;;;;;;;;;;;;;;;;5157452;27;1798;-50
2022/09/24 14:45:46;;;;;;;;;;;;;;;;;;5157130;27;1947;-41
2022/09/24 14:48:28;;;;;;;;;;;;;;;;;;5157114;27;1972;-46
2022/09/24 14:50:55;;;;;;;;;;;;;;;;;;5156814;27;1827;-41
2022/09/24 14:53:34;;;;;;;;;;;;;;;;;;5156934;27;2030;-49
2022/09/24 14:56:24;;;;;;;;;;;;;;;;;;5156918;27;1630;-52
2022/09/24 14:58:51;;;;;;;;;;;;;;;;;;5156466;27;1839;-47
2022/09/24 15:01:20;;;;;;;;;;;;;;;;;;5156591;27;1794;-46
2022/09/24 15:03:52;;;;;;;;;;;;;;;;;;5136241;27;1978;-47
2022/09/24 15:06:21;;;;;;;;;;;;;;;;;;5156822;27;1592;-43
2022/09/24 15:08:59;;;;;;;;;;;;;;;;;;5156763;27;1909;-49
2022/09/24 15:11:31;;;;;;;;;;;;;;;;;;5156843;27;2059;-48
2022/09/24 15:14:00;;;;;;;;;;;;;;;;;;5156883;27;2121;-47
2022/09/24 15:16:28;;;;;;;;;;;;;;;;;;5156436;27;1714;-47
2022/09/24 15:19:05;;;;;;;;;;;;;;;;;;5156167;27;1485;-53
2022/09/24 15:21:33;;;;;;;;;;;;;;;;;;5156700;27;2008;-48
2022/09/24 15:24:00;;;;;;;;;;;;;;;;;;5156799;27;1982;-47
2022/09/24 15:26:29;;;;;;;;;;;;;;;;;;5170845;27;2385;-43
2022/09/24 15:28:57;;;;;;;;;;;;;;;;;;5177231;27;1901;-49
2022/09/24 15:31:24;;;;;;;;;;;;;;;;;;5177171;27;1712;-48
2022/09/24 15:33:52;;;;;;;;;;;;;;;;;;5177184;27;1959;-46
2022/09/24 15:36:20;;;;;;;;;;;;;;;;;;5160377;27;2211;-49
2022/09/24 15:38:48;;;;;;;;;;;;;;;;;;5176740;27;1844;-49
2022/09/24 15:41:16;;;;;;;;;;;;;;;;;;5174741;27;1625;-48
2022/09/24 15:43:44;;;;;;;;;;;;;;;;;;5174523;27;1954;-43
2022/09/24 15:46:11;;;;;;;;;;;;;;;;;;5137569;27;2283;-46
2022/09/24 15:48:38;;;;;;;;;;;;;;;;;;5155467;27;1912;-46
2022/09/24 15:51:05;;;;;;;;;;;;;;;;;;5155925;27;1600;-42
2022/09/24 15:53:37;;;;;;;;;;;;;;;;;;5155801;27;1472;-45
2022/09/24 15:56:06;;;;;;;;;;;;;;;;;;5156072;27;2251;-47
2022/09/24 15:58:36;;;;;;;;;;;;;;;;;;5155725;27;1644;-48
2022/09/24 16:01:04;;;;;;;;;;;;;;;;;;5155650;27;1657;-50
2022/09/24 16:03:32;;;;;;;;;;;;;;;;;;5156076;27;1981;-46
2022/09/24 16:06:00;;;;;;;;;;;;;;;;;;5170701;27;1969;-49
2022/09/24 16:08:28;;;;;;;;;;;;;;;;;;5176312;27;1894;-45
2022/09/24 16:10:56;;;;;;;;;;;;;;;;;;5176404;27;1641;-52
2022/09/24 16:13:25;;;;;;;;;;;;;;;;;;5176556;27;2204;-49
2022/09/24 16:15:52;;;;;;;;;;;;;;;;;;5176133;27;1860;-46
2022/09/24 16:18:24;;;;;;;;;;;;;;;;;;5176156;27;1956;-50
2022/09/24 16:20:52;;;;;;;;;;;;;;;;;;5176157;27;1911;-49
2022/09/24 16:23:19;;;;;;;;;;;;;;;;;;5176174;27;1643;-47
2022/09/24 16:25:53;;;;;;;;;;;;;;;;;;5176039;27;1885;-47
2022/09/24 16:28:20;;;;;;;;;;;;;;;;;;5175580;27;2220;-49
2022/09/24 16:30:49;;;;;;;;;;;;;;;;;;5176198;27;1886;-53
2022/09/24 16:33:16;;;;;;;;;;;;;;;;;;5176144;27;1908;-48
2022/09/24 16:35:44;;;;;;;;;;;;;;;;;;5175889;27;1641;-46
2022/09/24 16:38:11;;;;;;;;;;;;;;;;;;5176004;27;1955;-48
2022/09/24 16:40:38;;;;;;;;;;;;;;;;;;5175264;27;2235;-42
2022/09/24 16:43:05;;;;;;;;;;;;;;;;;;5175867;27;1887;-47
2022/09/24 16:45:34;;;;;;;;;;;;;;;;;;5175989;27;1646;-49
2022/09/24 16:48:01;;;;;;;;;;;;;;;;;;5175936;27;1876;-51
2022/09/24 16:50:30;;;;;;;;;;;;;;;;;;5157079;27;2048;-50
2022/09/24 16:53:00;;;;;;;;;;;;;;;;;;5175898;27;1882;-45
2022/09/24 16:55:31;;;;;;;;;;;;;;;;;;5175327;27;1913;-44
2022/09/24 16:57:59;;;;;;;;;;;;;;;;;;5175535;27;1581;-42
2022/09/24 17:00:27;;;;;;;;;;;;;;;;;;5175671;27;1917;-44
2022/09/24 17:02:54;;;;;;;;;;;;;;;;;;5175400;27;1955;-46
2022/09/24 17:05:21;;;;;;;;;;;;;;;;;;5175705;27;2330;-46
2022/09/24 17:07:49;;;;;;;;;;;;;;;;;;5175195;27;1902;-49
2022/09/24 17:10:17;;;;;;;;;;;;;;;;;;5175556;27;1902;-49
2022/09/24 17:12:47;;;;;;;;;;;;;;;;;;5175386;27;1815;-52
2022/09/24 17:15:15;;;;;;;;;;;;;;;;;;5175150;27;2135;-51
2022/09/24 17:17:42;;;;;;;;;;;;;;;;;;5175334;27;2239;-52
2022/09/24 17:20:15;;;;;;;;;;;;;;;;;;5175461;27;1717;-49
2022/09/24 17:22:43;;;;;;;;;;;;;;;;;;5175485;27;1909;-47
2022/09/24 17:25:10;;;;;;;;;;;;;;;;;;5175397;27;2258;-42
2022/09/24 17:27:38;;;;;;;;;;;;;;;;;;5175693;27;1643;-48
2022/09/24 17:30:06;;;;;;;;;;;;;;;;;;5174762;27;2013;-47
2022/09/24 17:32:34;;;;;;;;;;;;;;;;;;5154244;27;2050;-41
2022/09/24 17:35:02;;;;;;;;;;;;;;;;;;5155036;27;1452;-39
2022/09/24 17:37:29;;;;;;;;;;;;;;;;;;5175078;27;2284;-48
2022/09/24 17:39:56;;;;;;;;;;;;;;;;;;5176296;27;1632;-50
2022/09/24 17:42:23;;;;;;;;;;;;;;;;;;5179247;27;1968;-48
2022/09/24 17:44:51;;;;;;;;;;;;;;;;;;5179117;27;1511;-48
2022/09/24 17:47:18;;;;;;;;;;;;;;;;;;5178917;27;1891;-50